sensor_id;sensor_type;location;lat;lon;timestamp;P1;durP1;ratioP1;P2;durP2;ratioP2
15451;SDS011;7827;53.594;9.938;2023-04-28T00:00:07;21.10;;;15.10;;
15451;SDS011;7827;53.594;9.938;2023-04-28T00:02:37;19.03;;;14.80;;
15451;SDS011;7827;53.594;9.938;2023-04-28T00:05:05;21.37;;;14.37;;
15451;SDS011;7827;53.594;9.938;2023-04-28T00:07:35;21.20;;;15.10;;
15451;SDS011;7827;53.594;9.938;2023-04-28T00:10:04;17.00;;;14.10;;
15451;SDS011;7827;53.594;9.938;2023-04-28T00:12:33;22.77;;;15.93;;
15451;SDS011;7827;53.594;9.938;2023-04-28T00:15:03;19.40;;;14.13;;
15451;SDS011;7827;53.594;9.938;2023-04-28T00:17:33;19.47;;;14.50;;
15451;SDS011;7827;53.594;9.938;2023-04-28T00:20:02;18.17;;;14.13;;
15451;SDS011;7827;53.594;9.938;2023-04-28T00:22:31;21.87;;;14.83;;
15451;SDS011;7827;53.594;9.938;2023-04-28T00:24:59;19.77;;;14.93;;
15451;SDS011;7827;53.594;9.938;2023-04-28T00:27:28;19.03;;;14.10;;
15451;SDS011;7827;53.594;9.938;2023-04-28T00:29:56;22.57;;;15.40;;
15451;SDS011;7827;53.594;9.938;2023-04-28T00:32:26;21.10;;;15.80;;
15451;SDS011;7827;53.594;9.938;2023-04-28T00:34:55;21.53;;;15.20;;
15451;SDS011;7827;53.594;9.938;2023-04-28T00:37:24;20.27;;;15.03;;
15451;SDS011;7827;53.594;9.938;2023-04-28T00:39:55;19.70;;;14.63;;
15451;SDS011;7827;53.594;9.938;2023-04-28T00:42:24;18.40;;;15.07;;
15451;SDS011;7827;53.594;9.938;2023-04-28T00:44:52;18.50;;;14.90;;
15451;SDS011;7827;53.594;9.938;2023-04-28T00:47:20;20.70;;;15.43;;
15451;SDS011;7827;53.594;9.938;2023-04-28T00:49:51;18.47;;;14.23;;
15451;SDS011;7827;53.594;9.938;2023-04-28T00:52:20;20.40;;;14.63;;
15451;SDS011;7827;53.594;9.938;2023-04-28T00:54:48;21.23;;;15.77;;
15451;SDS011;7827;53.594;9.938;2023-04-28T00:57:17;20.97;;;15.20;;
15451;SDS011;7827;53.594;9.938;2023-04-28T00:59:45;19.83;;;14.97;;
15451;SDS011;7827;53.594;9.938;2023-04-28T01:02:14;20.63;;;14.50;;
15451;SDS011;7827;53.594;9.938;2023-04-28T01:04:44;20.90;;;15.57;;
15451;SDS011;7827;53.594;9.938;2023-04-28T01:07:15;22.03;;;15.53;;
15451;SDS011;7827;53.594;9.938;2023-04-28T01:09:43;18.77;;;14.73;;
15451;SDS011;7827;53.594;9.938;2023-04-28T01:12:15;20.77;;;15.00;;
15451;SDS011;7827;53.594;9.938;2023-04-28T01:14:47;22.33;;;14.87;;
15451;SDS011;7827;53.594;9.938;2023-04-28T01:17:17;19.60;;;13.87;;
15451;SDS011;7827;53.594;9.938;2023-04-28T01:19:46;20.13;;;14.77;;
15451;SDS011;7827;53.594;9.938;2023-04-28T01:22:15;16.87;;;13.17;;
15451;SDS011;7827;53.594;9.938;2023-04-28T01:24:46;20.23;;;13.87;;
15451;SDS011;7827;53.594;9.938;2023-04-28T01:27:14;19.83;;;13.90;;
15451;SDS011;7827;53.594;9.938;2023-04-28T01:29:43;19.87;;;12.90;;
15451;SDS011;7827;53.594;9.938;2023-04-28T01:32:11;19.90;;;12.83;;
15451;SDS011;7827;53.594;9.938;2023-04-28T01:34:39;19.10;;;12.73;;
15451;SDS011;7827;53.594;9.938;2023-04-28T01:37:08;22.17;;;12.47;;
15451;SDS011;7827;53.594;9.938;2023-04-28T01:39:36;18.07;;;13.07;;
15451;SDS011;7827;53.594;9.938;2023-04-28T01:42:05;17.27;;;12.47;;
15451;SDS011;7827;53.594;9.938;2023-04-28T01:44:34;19.37;;;11.67;;
15451;SDS011;7827;53.594;9.938;2023-04-28T01:47:02;14.43;;;11.87;;
15451;SDS011;7827;53.594;9.938;2023-04-28T01:49:33;15.83;;;11.57;;
15451;SDS011;7827;53.594;9.938;2023-04-28T01:52:02;16.43;;;11.83;;
15451;SDS011;7827;53.594;9.938;2023-04-28T01:54:30;16.00;;;12.53;;
15451;SDS011;7827;53.594;9.938;2023-04-28T01:56:59;18.03;;;12.13;;
15451;SDS011;7827;53.594;9.938;2023-04-28T01:59:30;16.50;;;12.30;;
15451;SDS011;7827;53.594;9.938;2023-04-28T02:01:59;18.50;;;12.13;;
15451;SDS011;7827;53.594;9.938;2023-04-28T02:04:27;21.00;;;12.40;;
15451;SDS011;7827;53.594;9.938;2023-04-28T02:06:56;17.77;;;12.27;;
15451;SDS011;7827;53.594;9.938;2023-04-28T02:09:25;15.67;;;12.47;;
15451;SDS011;7827;53.594;9.938;2023-04-28T02:11:57;16.53;;;12.00;;
15451;SDS011;7827;53.594;9.938;2023-04-28T02:14:27;16.70;;;12.43;;
15451;SDS011;7827;53.594;9.938;2023-04-28T02:16:58;17.43;;;12.77;;
15451;SDS011;7827;53.594;9.938;2023-04-28T02:19:28;16.30;;;12.00;;
15451;SDS011;7827;53.594;9.938;2023-04-28T02:21:56;19.07;;;12.57;;
15451;SDS011;7827;53.594;9.938;2023-04-28T02:24:24;18.07;;;12.73;;
15451;SDS011;7827;53.594;9.938;2023-04-28T02:26:53;15.33;;;12.03;;
15451;SDS011;7827;53.594;9.938;2023-04-28T02:29:21;19.07;;;13.00;;
15451;SDS011;7827;53.594;9.938;2023-04-28T02:31:49;18.20;;;12.80;;
15451;SDS011;7827;53.594;9.938;2023-04-28T02:34:20;16.23;;;12.43;;
15451;SDS011;7827;53.594;9.938;2023-04-28T02:36:48;16.90;;;12.40;;
15451;SDS011;7827;53.594;9.938;2023-04-28T02:39:16;19.03;;;11.80;;
15451;SDS011;7827;53.594;9.938;2023-04-28T02:41:46;19.40;;;13.50;;
15451;SDS011;7827;53.594;9.938;2023-04-28T02:44:15;16.90;;;12.93;;
15451;SDS011;7827;53.594;9.938;2023-04-28T02:46:43;20.90;;;12.43;;
15451;SDS011;7827;53.594;9.938;2023-04-28T02:49:12;23.33;;;12.73;;
15451;SDS011;7827;53.594;9.938;2023-04-28T02:51:42;17.00;;;12.20;;
15451;SDS011;7827;53.594;9.938;2023-04-28T02:54:10;18.30;;;12.73;;
15451;SDS011;7827;53.594;9.938;2023-04-28T02:56:39;18.77;;;11.80;;
15451;SDS011;7827;53.594;9.938;2023-04-28T02:59:07;17.40;;;12.20;;
15451;SDS011;7827;53.594;9.938;2023-04-28T03:01:35;22.20;;;17.37;;
15451;SDS011;7827;53.594;9.938;2023-04-28T03:04:04;17.40;;;13.67;;
15451;SDS011;7827;53.594;9.938;2023-04-28T03:06:33;20.50;;;13.50;;
15451;SDS011;7827;53.594;9.938;2023-04-28T03:09:03;18.10;;;11.97;;
15451;SDS011;7827;53.594;9.938;2023-04-28T03:11:33;18.37;;;12.47;;
15451;SDS011;7827;53.594;9.938;2023-04-28T03:14:02;18.97;;;12.40;;
15451;SDS011;7827;53.594;9.938;2023-04-28T03:16:30;19.80;;;12.83;;
15451;SDS011;7827;53.594;9.938;2023-04-28T03:18:59;17.37;;;11.30;;
15451;SDS011;7827;53.594;9.938;2023-04-28T03:21:28;16.23;;;12.17;;
15451;SDS011;7827;53.594;9.938;2023-04-28T03:23:57;17.23;;;12.10;;
15451;SDS011;7827;53.594;9.938;2023-04-28T03:26:29;19.50;;;12.40;;
15451;SDS011;7827;53.594;9.938;2023-04-28T03:28:57;17.30;;;11.37;;
15451;SDS011;7827;53.594;9.938;2023-04-28T03:31:26;15.87;;;12.30;;
15451;SDS011;7827;53.594;9.938;2023-04-28T03:33:54;17.77;;;11.47;;
15451;SDS011;7827;53.594;9.938;2023-04-28T03:36:24;18.50;;;11.77;;
15451;SDS011;7827;53.594;9.938;2023-04-28T03:38:58;16.23;;;11.13;;
15451;SDS011;7827;53.594;9.938;2023-04-28T03:41:26;16.17;;;11.83;;
15451;SDS011;7827;53.594;9.938;2023-04-28T03:44:25;18.30;;;12.00;;
15451;SDS011;7827;53.594;9.938;2023-04-28T03:46:53;19.27;;;11.77;;
15451;SDS011;7827;53.594;9.938;2023-04-28T03:49:22;16.97;;;12.40;;
15451;SDS011;7827;53.594;9.938;2023-04-28T03:51:50;16.50;;;11.83;;
15451;SDS011;7827;53.594;9.938;2023-04-28T03:54:19;16.07;;;11.50;;
15451;SDS011;7827;53.594;9.938;2023-04-28T03:56:47;16.03;;;12.20;;
15451;SDS011;7827;53.594;9.938;2023-04-28T03:59:16;17.97;;;12.10;;
15451;SDS011;7827;53.594;9.938;2023-04-28T04:01:45;15.27;;;11.23;;
15451;SDS011;7827;53.594;9.938;2023-04-28T04:04:14;18.27;;;11.60;;
15451;SDS011;7827;53.594;9.938;2023-04-28T04:06:43;15.23;;;10.97;;
15451;SDS011;7827;53.594;9.938;2023-04-28T04:09:12;14.50;;;11.23;;
15451;SDS011;7827;53.594;9.938;2023-04-28T04:11:40;14.07;;;11.60;;
15451;SDS011;7827;53.594;9.938;2023-04-28T04:14:09;15.83;;;10.53;;
15451;SDS011;7827;53.594;9.938;2023-04-28T04:16:38;15.07;;;11.07;;
15451;SDS011;7827;53.594;9.938;2023-04-28T04:19:07;16.53;;;10.83;;
15451;SDS011;7827;53.594;9.938;2023-04-28T04:21:40;16.77;;;11.07;;
15451;SDS011;7827;53.594;9.938;2023-04-28T04:24:08;14.40;;;11.07;;
15451;SDS011;7827;53.594;9.938;2023-04-28T04:26:37;13.63;;;10.77;;
15451;SDS011;7827;53.594;9.938;2023-04-28T04:29:22;13.90;;;10.70;;
15451;SDS011;7827;53.594;9.938;2023-04-28T04:31:50;17.67;;;10.50;;
15451;SDS011;7827;53.594;9.938;2023-04-28T04:34:20;13.73;;;10.23;;
15451;SDS011;7827;53.594;9.938;2023-04-28T04:36:48;14.10;;;10.00;;
15451;SDS011;7827;53.594;9.938;2023-04-28T04:39:16;15.03;;;9.37;;
15451;SDS011;7827;53.594;9.938;2023-04-28T04:41:46;14.33;;;9.77;;
15451;SDS011;7827;53.594;9.938;2023-04-28T04:44:30;12.30;;;9.40;;
15451;SDS011;7827;53.594;9.938;2023-04-28T04:46:59;13.53;;;8.80;;
15451;SDS011;7827;53.594;9.938;2023-04-28T04:49:30;10.17;;;8.17;;
15451;SDS011;7827;53.594;9.938;2023-04-28T04:51:59;18.67;;;9.33;;
15451;SDS011;7827;53.594;9.938;2023-04-28T04:54:29;14.33;;;9.47;;
15451;SDS011;7827;53.594;9.938;2023-04-28T04:56:57;13.13;;;8.87;;
15451;SDS011;7827;53.594;9.938;2023-04-28T04:59:45;13.37;;;8.50;;
15451;SDS011;7827;53.594;9.938;2023-04-28T05:02:16;11.80;;;8.70;;
15451;SDS011;7827;53.594;9.938;2023-04-28T05:04:46;13.67;;;8.53;;
15451;SDS011;7827;53.594;9.938;2023-04-28T05:07:15;10.40;;;8.03;;
15451;SDS011;7827;53.594;9.938;2023-04-28T05:09:43;14.57;;;8.17;;
15451;SDS011;7827;53.594;9.938;2023-04-28T05:12:11;18.27;;;8.23;;
15451;SDS011;7827;53.594;9.938;2023-04-28T05:14:40;16.20;;;8.23;;
15451;SDS011;7827;53.594;9.938;2023-04-28T05:17:08;10.83;;;7.97;;
15451;SDS011;7827;53.594;9.938;2023-04-28T05:19:39;12.73;;;8.47;;
15451;SDS011;7827;53.594;9.938;2023-04-28T05:22:09;12.43;;;8.27;;
15451;SDS011;7827;53.594;9.938;2023-04-28T05:24:37;14.30;;;8.10;;
15451;SDS011;7827;53.594;9.938;2023-04-28T05:27:05;11.97;;;7.77;;
15451;SDS011;7827;53.594;9.938;2023-04-28T05:29:34;11.97;;;8.00;;
15451;SDS011;7827;53.594;9.938;2023-04-28T05:32:03;11.13;;;7.73;;
15451;SDS011;7827;53.594;9.938;2023-04-28T05:34:31;11.43;;;7.67;;
15451;SDS011;7827;53.594;9.938;2023-04-28T05:37:00;9.17;;;6.80;;
15451;SDS011;7827;53.594;9.938;2023-04-28T05:39:31;8.53;;;6.70;;
15451;SDS011;7827;53.594;9.938;2023-04-28T05:42:02;12.93;;;7.33;;
15451;SDS011;7827;53.594;9.938;2023-04-28T05:44:31;13.23;;;7.13;;
15451;SDS011;7827;53.594;9.938;2023-04-28T05:46:59;9.00;;;6.80;;
15451;SDS011;7827;53.594;9.938;2023-04-28T05:49:27;9.87;;;7.17;;
15451;SDS011;7827;53.594;9.938;2023-04-28T05:51:56;15.07;;;6.77;;
15451;SDS011;7827;53.594;9.938;2023-04-28T05:54:24;8.90;;;6.63;;
15451;SDS011;7827;53.594;9.938;2023-04-28T05:56:55;9.77;;;6.40;;
15451;SDS011;7827;53.594;9.938;2023-04-28T05:59:27;9.83;;;6.53;;
15451;SDS011;7827;53.594;9.938;2023-04-28T06:01:56;10.40;;;6.20;;
15451;SDS011;7827;53.594;9.938;2023-04-28T06:04:25;10.77;;;6.80;;
15451;SDS011;7827;53.594;9.938;2023-04-28T06:06:54;11.13;;;6.27;;
15451;SDS011;7827;53.594;9.938;2023-04-28T06:09:23;12.07;;;6.17;;
15451;SDS011;7827;53.594;9.938;2023-04-28T06:11:52;10.23;;;5.60;;
15451;SDS011;7827;53.594;9.938;2023-04-28T06:14:22;8.60;;;6.13;;
15451;SDS011;7827;53.594;9.938;2023-04-28T06:16:50;13.70;;;6.10;;
15451;SDS011;7827;53.594;9.938;2023-04-28T06:19:19;9.57;;;6.00;;
15451;SDS011;7827;53.594;9.938;2023-04-28T06:21:48;7.50;;;5.57;;
15451;SDS011;7827;53.594;9.938;2023-04-28T06:24:18;6.43;;;5.27;;
15451;SDS011;7827;53.594;9.938;2023-04-28T06:26:47;7.83;;;5.17;;
15451;SDS011;7827;53.594;9.938;2023-04-28T06:29:15;7.00;;;5.07;;
15451;SDS011;7827;53.594;9.938;2023-04-28T06:31:47;5.83;;;5.10;;
15451;SDS011;7827;53.594;9.938;2023-04-28T06:34:15;7.13;;;4.77;;
15451;SDS011;7827;53.594;9.938;2023-04-28T06:36:44;9.87;;;4.70;;
15451;SDS011;7827;53.594;9.938;2023-04-28T06:39:12;6.90;;;5.00;;
15451;SDS011;7827;53.594;9.938;2023-04-28T06:41:40;7.33;;;5.20;;
15451;SDS011;7827;53.594;9.938;2023-04-28T06:44:10;8.97;;;5.07;;
15451;SDS011;7827;53.594;9.938;2023-04-28T06:46:38;9.10;;;4.70;;
15451;SDS011;7827;53.594;9.938;2023-04-28T06:49:10;12.95;;;4.68;;
15451;SDS011;7827;53.594;9.938;2023-04-28T06:51:38;11.35;;;5.13;;
15451;SDS011;7827;53.594;9.938;2023-04-28T06:54:06;8.88;;;4.60;;
15451;SDS011;7827;53.594;9.938;2023-04-28T06:56:35;7.80;;;4.30;;
15451;SDS011;7827;53.594;9.938;2023-04-28T06:59:03;10.33;;;4.40;;
15451;SDS011;7827;53.594;9.938;2023-04-28T07:01:31;8.15;;;4.10;;
15451;SDS011;7827;53.594;9.938;2023-04-28T07:04:00;10.23;;;4.30;;
15451;SDS011;7827;53.594;9.938;2023-04-28T07:06:30;7.18;;;4.07;;
15451;SDS011;7827;53.594;9.938;2023-04-28T07:08:58;6.15;;;4.03;;
15451;SDS011;7827;53.594;9.938;2023-04-28T07:11:26;9.20;;;4.60;;
15451;SDS011;7827;53.594;9.938;2023-04-28T07:13:55;4.68;;;3.70;;
15451;SDS011;7827;53.594;9.938;2023-04-28T07:16:24;9.27;;;4.22;;
15451;SDS011;7827;53.594;9.938;2023-04-28T07:18:52;8.73;;;4.20;;
15451;SDS011;7827;53.594;9.938;2023-04-28T07:21:21;7.68;;;4.18;;
15451;SDS011;7827;53.594;9.938;2023-04-28T07:23:50;8.65;;;3.92;;
15451;SDS011;7827;53.594;9.938;2023-04-28T07:26:22;8.63;;;4.13;;
15451;SDS011;7827;53.594;9.938;2023-04-28T07:28:50;6.78;;;3.83;;
15451;SDS011;7827;53.594;9.938;2023-04-28T07:31:18;7.28;;;4.13;;
15451;SDS011;7827;53.594;9.938;2023-04-28T07:33:47;7.75;;;4.13;;
15451;SDS011;7827;53.594;9.938;2023-04-28T07:36:15;6.50;;;4.38;;
15451;SDS011;7827;53.594;9.938;2023-04-28T07:38:44;6.03;;;3.90;;
15451;SDS011;7827;53.594;9.938;2023-04-28T07:41:15;7.53;;;4.22;;
15451;SDS011;7827;53.594;9.938;2023-04-28T07:43:44;7.68;;;3.95;;
15451;SDS011;7827;53.594;9.938;2023-04-28T07:46:13;6.78;;;4.10;;
15451;SDS011;7827;53.594;9.938;2023-04-28T07:48:42;10.02;;;3.90;;
15451;SDS011;7827;53.594;9.938;2023-04-28T07:51:10;9.52;;;4.50;;
15451;SDS011;7827;53.594;9.938;2023-04-28T07:53:38;8.65;;;4.30;;
15451;SDS011;7827;53.594;9.938;2023-04-28T07:56:07;7.25;;;4.20;;
15451;SDS011;7827;53.594;9.938;2023-04-28T07:58:37;6.93;;;4.07;;
15451;SDS011;7827;53.594;9.938;2023-04-28T08:01:05;6.82;;;4.00;;
15451;SDS011;7827;53.594;9.938;2023-04-28T08:03:34;8.32;;;4.25;;
15451;SDS011;7827;53.594;9.938;2023-04-28T08:06:02;6.47;;;4.30;;
15451;SDS011;7827;53.594;9.938;2023-04-28T08:08:31;8.82;;;4.85;;
15451;SDS011;7827;53.594;9.938;2023-04-28T08:11:00;8.52;;;5.00;;
15451;SDS011;7827;53.594;9.938;2023-04-28T08:13:29;7.20;;;4.00;;
15451;SDS011;7827;53.594;9.938;2023-04-28T08:15:58;7.30;;;4.28;;
15451;SDS011;7827;53.594;9.938;2023-04-28T08:18:27;6.30;;;4.10;;
15451;SDS011;7827;53.594;9.938;2023-04-28T08:20:56;4.90;;;4.22;;
15451;SDS011;7827;53.594;9.938;2023-04-28T08:23:24;5.93;;;4.30;;
15451;SDS011;7827;53.594;9.938;2023-04-28T08:25:53;7.50;;;4.15;;
15451;SDS011;7827;53.594;9.938;2023-04-28T08:28:22;6.25;;;4.00;;
15451;SDS011;7827;53.594;9.938;2023-04-28T08:30:50;5.72;;;4.30;;
15451;SDS011;7827;53.594;9.938;2023-04-28T08:33:22;6.07;;;4.13;;
15451;SDS011;7827;53.594;9.938;2023-04-28T08:35:50;9.15;;;4.10;;
15451;SDS011;7827;53.594;9.938;2023-04-28T08:38:20;8.50;;;4.70;;
15451;SDS011;7827;53.594;9.938;2023-04-28T08:40:50;7.38;;;4.43;;
15451;SDS011;7827;53.594;9.938;2023-04-28T08:43:18;7.97;;;4.25;;
15451;SDS011;7827;53.594;9.938;2023-04-28T08:45:47;7.13;;;4.38;;
15451;SDS011;7827;53.594;9.938;2023-04-28T08:48:16;6.47;;;4.35;;
15451;SDS011;7827;53.594;9.938;2023-04-28T08:50:51;8.15;;;4.80;;
15451;SDS011;7827;53.594;9.938;2023-04-28T08:53:21;7.38;;;4.82;;
15451;SDS011;7827;53.594;9.938;2023-04-28T08:55:53;7.90;;;4.35;;
15451;SDS011;7827;53.594;9.938;2023-04-28T08:58:23;9.18;;;4.10;;
15451;SDS011;7827;53.594;9.938;2023-04-28T09:00:53;6.40;;;4.70;;
15451;SDS011;7827;53.594;9.938;2023-04-28T09:03:22;6.45;;;4.43;;
15451;SDS011;7827;53.594;9.938;2023-04-28T09:05:52;9.38;;;5.10;;
15451;SDS011;7827;53.594;9.938;2023-04-28T09:08:20;5.93;;;4.57;;
15451;SDS011;7827;53.594;9.938;2023-04-28T09:10:49;5.47;;;4.50;;
15451;SDS011;7827;53.594;9.938;2023-04-28T09:13:34;7.82;;;5.22;;
15451;SDS011;7827;53.594;9.938;2023-04-28T09:16:03;7.15;;;5.07;;
15451;SDS011;7827;53.594;9.938;2023-04-28T09:18:33;7.80;;;5.75;;
15451;SDS011;7827;53.594;9.938;2023-04-28T09:21:03;10.13;;;5.28;;
15451;SDS011;7827;53.594;9.938;2023-04-28T09:23:34;6.40;;;4.93;;
15451;SDS011;7827;53.594;9.938;2023-04-28T09:26:14;10.77;;;5.03;;
15451;SDS011;7827;53.594;9.938;2023-04-28T09:28:42;7.47;;;4.53;;
15451;SDS011;7827;53.594;9.938;2023-04-28T09:31:21;7.50;;;4.95;;
15451;SDS011;7827;53.594;9.938;2023-04-28T09:33:57;8.05;;;4.93;;
15451;SDS011;7827;53.594;9.938;2023-04-28T09:36:27;8.80;;;4.70;;
15451;SDS011;7827;53.594;9.938;2023-04-28T09:38:56;9.18;;;4.85;;
15451;SDS011;7827;53.594;9.938;2023-04-28T09:44:15;9.35;;;5.28;;
15451;SDS011;7827;53.594;9.938;2023-04-28T09:46:46;8.85;;;4.65;;
15451;SDS011;7827;53.594;9.938;2023-04-28T09:49:15;9.02;;;4.68;;
15451;SDS011;7827;53.594;9.938;2023-04-28T09:51:44;5.75;;;4.50;;
15451;SDS011;7827;53.594;9.938;2023-04-28T09:54:13;7.57;;;5.20;;
15451;SDS011;7827;53.594;9.938;2023-04-28T09:56:44;9.23;;;4.50;;
15451;SDS011;7827;53.594;9.938;2023-04-28T09:59:14;6.82;;;5.00;;
15451;SDS011;7827;53.594;9.938;2023-04-28T10:01:42;10.50;;;5.30;;
15451;SDS011;7827;53.594;9.938;2023-04-28T10:04:12;7.85;;;5.07;;
15451;SDS011;7827;53.594;9.938;2023-04-28T10:06:41;11.15;;;5.47;;
15451;SDS011;7827;53.594;9.938;2023-04-28T10:09:12;7.30;;;5.63;;
15451;SDS011;7827;53.594;9.938;2023-04-28T10:11:42;12.07;;;5.28;;
15451;SDS011;7827;53.594;9.938;2023-04-28T10:14:11;7.35;;;5.05;;
15451;SDS011;7827;53.594;9.938;2023-04-28T10:16:40;6.15;;;4.88;;
15451;SDS011;7827;53.594;9.938;2023-04-28T10:19:09;7.93;;;5.32;;
15451;SDS011;7827;53.594;9.938;2023-04-28T10:21:39;9.27;;;5.68;;
15451;SDS011;7827;53.594;9.938;2023-04-28T10:24:28;9.90;;;5.47;;
15451;SDS011;7827;53.594;9.938;2023-04-28T10:27:04;11.02;;;5.18;;
15451;SDS011;7827;53.594;9.938;2023-04-28T10:29:35;7.32;;;5.28;;
15451;SDS011;7827;53.594;9.938;2023-04-28T10:32:22;10.82;;;5.10;;
15451;SDS011;7827;53.594;9.938;2023-04-28T10:38:10;10.00;;;5.70;;
15451;SDS011;7827;53.594;9.938;2023-04-28T10:40:40;7.78;;;5.53;;
15451;SDS011;7827;53.594;9.938;2023-04-28T10:43:10;9.55;;;5.85;;
15451;SDS011;7827;53.594;9.938;2023-04-28T10:45:59;7.13;;;4.93;;
15451;SDS011;7827;53.594;9.938;2023-04-28T10:48:51;7.90;;;5.53;;
15451;SDS011;7827;53.594;9.938;2023-04-28T10:51:27;7.90;;;5.38;;
15451;SDS011;7827;53.594;9.938;2023-04-28T10:59:48;8.90;;;5.55;;
15451;SDS011;7827;53.594;9.938;2023-04-28T11:05:16;7.75;;;5.78;;
15451;SDS011;7827;53.594;9.938;2023-04-28T11:11:20;10.45;;;6.00;;
15451;SDS011;7827;53.594;9.938;2023-04-28T11:13:51;9.00;;;6.00;;
15451;SDS011;7827;53.594;9.938;2023-04-28T11:16:22;7.22;;;5.32;;
15451;SDS011;7827;53.594;9.938;2023-04-28T11:18:59;10.00;;;6.18;;
15451;SDS011;7827;53.594;9.938;2023-04-28T11:21:31;7.85;;;5.72;;
15451;SDS011;7827;53.594;9.938;2023-04-28T11:24:00;10.48;;;5.70;;
15451;SDS011;7827;53.594;9.938;2023-04-28T11:26:37;7.80;;;6.13;;
15451;SDS011;7827;53.594;9.938;2023-04-28T11:29:05;11.23;;;5.90;;
15451;SDS011;7827;53.594;9.938;2023-04-28T11:31:34;7.18;;;6.00;;
15451;SDS011;7827;53.594;9.938;2023-04-28T11:34:04;8.77;;;5.80;;
15451;SDS011;7827;53.594;9.938;2023-04-28T11:36:37;5.93;;;5.07;;
15451;SDS011;7827;53.594;9.938;2023-04-28T11:39:08;9.27;;;5.90;;
15451;SDS011;7827;53.594;9.938;2023-04-28T11:41:40;9.52;;;5.55;;
15451;SDS011;7827;53.594;9.938;2023-04-28T11:44:11;8.32;;;5.85;;
15451;SDS011;7827;53.594;9.938;2023-04-28T11:46:46;10.40;;;5.68;;
15451;SDS011;7827;53.594;9.938;2023-04-28T11:49:19;9.68;;;5.47;;
15451;SDS011;7827;53.594;9.938;2023-04-28T11:51:50;11.40;;;5.38;;
15451;SDS011;7827;53.594;9.938;2023-04-28T11:54:19;11.48;;;5.82;;
15451;SDS011;7827;53.594;9.938;2023-04-28T11:56:53;11.35;;;6.72;;
15451;SDS011;7827;53.594;9.938;2023-04-28T11:59:24;10.48;;;5.65;;
15451;SDS011;7827;53.594;9.938;2023-04-28T12:01:54;7.75;;;6.25;;
15451;SDS011;7827;53.594;9.938;2023-04-28T12:04:26;10.98;;;5.78;;
15451;SDS011;7827;53.594;9.938;2023-04-28T12:06:57;7.25;;;5.50;;
15451;SDS011;7827;53.594;9.938;2023-04-28T12:09:28;9.52;;;6.03;;
15451;SDS011;7827;53.594;9.938;2023-04-28T12:12:01;7.93;;;5.93;;
15451;SDS011;7827;53.594;9.938;2023-04-28T12:14:31;10.77;;;6.20;;
15451;SDS011;7827;53.594;9.938;2023-04-28T12:17:23;6.50;;;5.82;;
15451;SDS011;7827;53.594;9.938;2023-04-28T12:19:53;12.38;;;5.88;;
15451;SDS011;7827;53.594;9.938;2023-04-28T12:22:22;8.57;;;6.10;;
15451;SDS011;7827;53.594;9.938;2023-04-28T12:25:04;8.45;;;5.53;;
15451;SDS011;7827;53.594;9.938;2023-04-28T12:27:36;7.57;;;5.70;;
15451;SDS011;7827;53.594;9.938;2023-04-28T12:30:24;10.07;;;6.03;;
15451;SDS011;7827;53.594;9.938;2023-04-28T12:32:54;11.20;;;6.22;;
15451;SDS011;7827;53.594;9.938;2023-04-28T12:35:23;7.82;;;5.75;;
15451;SDS011;7827;53.594;9.938;2023-04-28T12:37:54;10.50;;;6.63;;
15451;SDS011;7827;53.594;9.938;2023-04-28T12:40:24;9.32;;;6.03;;
15451;SDS011;7827;53.594;9.938;2023-04-28T12:42:54;8.80;;;6.22;;
15451;SDS011;7827;53.594;9.938;2023-04-28T12:45:23;10.88;;;5.97;;
15451;SDS011;7827;53.594;9.938;2023-04-28T12:47:51;8.45;;;5.88;;
15451;SDS011;7827;53.594;9.938;2023-04-28T12:50:20;7.93;;;6.07;;
15451;SDS011;7827;53.594;9.938;2023-04-28T12:52:48;10.73;;;6.47;;
15451;SDS011;7827;53.594;9.938;2023-04-28T12:55:16;11.00;;;6.43;;
15451;SDS011;7827;53.594;9.938;2023-04-28T12:57:46;11.43;;;6.15;;
15451;SDS011;7827;53.594;9.938;2023-04-28T13:00:15;7.18;;;6.28;;
15451;SDS011;7827;53.594;9.938;2023-04-28T13:02:48;8.77;;;6.47;;
15451;SDS011;7827;53.594;9.938;2023-04-28T13:05:18;10.18;;;5.90;;
15451;SDS011;7827;53.594;9.938;2023-04-28T13:07:47;9.00;;;6.10;;
15451;SDS011;7827;53.594;9.938;2023-04-28T13:10:16;10.07;;;6.20;;
15451;SDS011;7827;53.594;9.938;2023-04-28T13:12:46;10.80;;;6.97;;
15451;SDS011;7827;53.594;9.938;2023-04-28T13:15:16;13.48;;;6.63;;
15451;SDS011;7827;53.594;9.938;2023-04-28T13:17:45;10.70;;;6.80;;
15451;SDS011;7827;53.594;9.938;2023-04-28T13:20:14;9.23;;;6.55;;
15451;SDS011;7827;53.594;9.938;2023-04-28T13:22:43;8.75;;;6.22;;
15451;SDS011;7827;53.594;9.938;2023-04-28T13:25:12;10.57;;;6.88;;
15451;SDS011;7827;53.594;9.938;2023-04-28T13:27:40;11.80;;;6.65;;
15451;SDS011;7827;53.594;9.938;2023-04-28T13:30:09;12.27;;;6.85;;
15451;SDS011;7827;53.594;9.938;2023-04-28T13:32:40;7.72;;;6.13;;
15451;SDS011;7827;53.594;9.938;2023-04-28T13:35:09;11.80;;;6.90;;
15451;SDS011;7827;53.594;9.938;2023-04-28T13:37:39;8.25;;;6.50;;
15451;SDS011;7827;53.594;9.938;2023-04-28T13:40:11;11.52;;;6.72;;
15451;SDS011;7827;53.594;9.938;2023-04-28T13:42:40;11.07;;;7.10;;
15451;SDS011;7827;53.594;9.938;2023-04-28T13:45:08;14.85;;;6.68;;
15451;SDS011;7827;53.594;9.938;2023-04-28T13:47:37;13.50;;;6.70;;
15451;SDS011;7827;53.594;9.938;2023-04-28T13:50:07;11.10;;;7.57;;
15451;SDS011;7827;53.594;9.938;2023-04-28T13:52:37;11.25;;;6.80;;
15451;SDS011;7827;53.594;9.938;2023-04-28T13:55:05;11.82;;;7.10;;
15451;SDS011;7827;53.594;9.938;2023-04-28T13:57:35;13.20;;;6.75;;
15451;SDS011;7827;53.594;9.938;2023-04-28T14:00:04;9.45;;;6.57;;
15451;SDS011;7827;53.594;9.938;2023-04-28T14:02:34;11.00;;;6.68;;
15451;SDS011;7827;53.594;9.938;2023-04-28T14:05:03;12.40;;;6.80;;
15451;SDS011;7827;53.594;9.938;2023-04-28T14:07:33;9.40;;;6.50;;
15451;SDS011;7827;53.594;9.938;2023-04-28T14:10:02;10.65;;;7.22;;
15451;SDS011;7827;53.594;9.938;2023-04-28T14:12:31;9.88;;;6.40;;
15451;SDS011;7827;53.594;9.938;2023-04-28T14:14:59;8.63;;;6.50;;
15451;SDS011;7827;53.594;9.938;2023-04-28T14:17:28;11.27;;;6.93;;
15451;SDS011;7827;53.594;9.938;2023-04-28T14:19:56;11.65;;;7.25;;
15451;SDS011;7827;53.594;9.938;2023-04-28T14:22:24;10.65;;;6.75;;
15451;SDS011;7827;53.594;9.938;2023-04-28T14:24:54;7.97;;;7.15;;
15451;SDS011;7827;53.594;9.938;2023-04-28T14:27:22;12.70;;;7.50;;
15451;SDS011;7827;53.594;9.938;2023-04-28T14:29:51;10.23;;;6.95;;
15451;SDS011;7827;53.594;9.938;2023-04-28T14:32:19;13.35;;;7.63;;
15451;SDS011;7827;53.594;9.938;2023-04-28T14:34:47;11.32;;;7.80;;
15451;SDS011;7827;53.594;9.938;2023-04-28T14:37:16;15.63;;;7.60;;
15451;SDS011;7827;53.594;9.938;2023-04-28T14:39:45;10.00;;;7.18;;
15451;SDS011;7827;53.594;9.938;2023-04-28T14:42:14;11.88;;;8.25;;
15451;SDS011;7827;53.594;9.938;2023-04-28T14:44:43;10.57;;;7.93;;
15451;SDS011;7827;53.594;9.938;2023-04-28T14:47:11;12.25;;;7.57;;
15451;SDS011;7827;53.594;9.938;2023-04-28T14:49:40;10.95;;;7.22;;
15451;SDS011;7827;53.594;9.938;2023-04-28T14:52:08;10.98;;;7.53;;
15451;SDS011;7827;53.594;9.938;2023-04-28T14:54:37;14.10;;;8.50;;
15451;SDS011;7827;53.594;9.938;2023-04-28T14:57:05;15.40;;;8.93;;
15451;SDS011;7827;53.594;9.938;2023-04-28T14:59:35;14.98;;;8.55;;
15451;SDS011;7827;53.594;9.938;2023-04-28T15:02:03;11.77;;;8.25;;
15451;SDS011;7827;53.594;9.938;2023-04-28T15:04:33;10.25;;;8.05;;
15451;SDS011;7827;53.594;9.938;2023-04-28T15:07:01;11.77;;;8.52;;
15451;SDS011;7827;53.594;9.938;2023-04-28T15:09:30;13.55;;;8.30;;
15451;SDS011;7827;53.594;9.938;2023-04-28T15:11:59;10.35;;;8.30;;
15451;SDS011;7827;53.594;9.938;2023-04-28T15:14:28;10.77;;;8.15;;
15451;SDS011;7827;53.594;9.938;2023-04-28T15:16:58;13.48;;;9.13;;
15451;SDS011;7827;53.594;9.938;2023-04-28T15:19:27;10.18;;;7.93;;
15451;SDS011;7827;53.594;9.938;2023-04-28T15:21:55;12.40;;;8.65;;